sensor_id;sensor_type;location;lat;lon;timestamp;P1;durP1;ratioP1;P2;durP2;ratioP2
1400;SDS011;46518;48.842;8.926;2023-06-22T00:00:35;11.70;;;10.60;;
1400;SDS011;46518;48.842;8.926;2023-06-22T00:03:04;12.87;;;11.20;;
1400;SDS011;46518;48.842;8.926;2023-06-22T00:05:33;15.23;;;10.17;;
1400;SDS011;46518;48.842;8.926;2023-06-22T00:08:02;13.10;;;11.47;;
1400;SDS011;46518;48.842;8.926;2023-06-22T00:10:31;13.13;;;10.90;;
1400;SDS011;46518;48.842;8.926;2023-06-22T00:12:59;11.90;;;10.70;;
1400;SDS011;46518;48.842;8.926;2023-06-22T00:15:27;13.70;;;10.40;;
1400;SDS011;46518;48.842;8.926;2023-06-22T00:17:56;13.57;;;12.17;;
1400;SDS011;46518;48.842;8.926;2023-06-22T00:20:27;10.13;;;9.13;;
1400;SDS011;46518;48.842;8.926;2023-06-22T00:22:57;12.33;;;11.10;;
1400;SDS011;46518;48.842;8.926;2023-06-22T00:25:26;12.07;;;10.87;;
1400;SDS011;46518;48.842;8.926;2023-06-22T00:27:54;10.57;;;9.67;;
1400;SDS011;46518;48.842;8.926;2023-06-22T00:30:22;10.60;;;9.60;;
1400;SDS011;46518;48.842;8.926;2023-06-22T00:32:50;11.50;;;10.30;;
1400;SDS011;46518;48.842;8.926;2023-06-22T00:35:18;15.00;;;11.60;;
1400;SDS011;46518;48.842;8.926;2023-06-22T00:37:48;13.63;;;10.67;;
1400;SDS011;46518;48.842;8.926;2023-06-22T00:40:19;12.00;;;10.80;;
1400;SDS011;46518;48.842;8.926;2023-06-22T00:42:48;12.47;;;11.27;;
1400;SDS011;46518;48.842;8.926;2023-06-22T00:45:16;13.77;;;11.30;;
1400;SDS011;46518;48.842;8.926;2023-06-22T00:47:44;12.53;;;11.23;;
1400;SDS011;46518;48.842;8.926;2023-06-22T00:50:14;13.93;;;12.20;;
1400;SDS011;46518;48.842;8.926;2023-06-22T00:52:50;13.00;;;11.20;;
1400;SDS011;46518;48.842;8.926;2023-06-22T00:55:20;13.27;;;11.87;;
1400;SDS011;46518;48.842;8.926;2023-06-22T00:57:48;12.33;;;10.70;;
1400;SDS011;46518;48.842;8.926;2023-06-22T01:00:17;12.20;;;10.57;;
1400;SDS011;46518;48.842;8.926;2023-06-22T01:02:46;12.90;;;11.60;;
1400;SDS011;46518;48.842;8.926;2023-06-22T01:05:18;13.83;;;11.70;;
1400;SDS011;46518;48.842;8.926;2023-06-22T01:07:52;13.10;;;11.80;;
1400;SDS011;46518;48.842;8.926;2023-06-22T01:10:30;11.70;;;10.50;;
1400;SDS011;46518;48.842;8.926;2023-06-22T01:13:10;12.20;;;10.83;;
1400;SDS011;46518;48.842;8.926;2023-06-22T01:15:48;11.20;;;10.20;;
1400;SDS011;46518;48.842;8.926;2023-06-22T01:18:19;13.13;;;11.50;;
1400;SDS011;46518;48.842;8.926;2023-06-22T01:20:52;15.87;;;10.47;;
1400;SDS011;46518;48.842;8.926;2023-06-22T01:23:26;13.70;;;12.07;;
1400;SDS011;46518;48.842;8.926;2023-06-22T01:26:04;12.10;;;10.90;;
1400;SDS011;46518;48.842;8.926;2023-06-22T01:28:45;12.40;;;11.20;;
1400;SDS011;46518;48.842;8.926;2023-06-22T01:31:15;12.20;;;10.80;;
1400;SDS011;46518;48.842;8.926;2023-06-22T01:33:48;11.23;;;10.10;;
1400;SDS011;46518;48.842;8.926;2023-06-22T01:36:18;11.23;;;9.80;;
1400;SDS011;46518;48.842;8.926;2023-06-22T01:38:47;10.20;;;9.30;;
1400;SDS011;46518;48.842;8.926;2023-06-22T01:41:18;12.27;;;10.93;;
1400;SDS011;46518;48.842;8.926;2023-06-22T01:43:49;11.67;;;10.47;;
1400;SDS011;46518;48.842;8.926;2023-06-22T01:46:19;13.93;;;10.30;;
1400;SDS011;46518;48.842;8.926;2023-06-22T01:48:48;12.43;;;10.03;;
1400;SDS011;46518;48.842;8.926;2023-06-22T01:51:18;12.60;;;11.03;;
1400;SDS011;46518;48.842;8.926;2023-06-22T01:53:46;12.90;;;11.60;;
1400;SDS011;46518;48.842;8.926;2023-06-22T01:56:15;12.10;;;10.80;;
1400;SDS011;46518;48.842;8.926;2023-06-22T01:58:46;11.10;;;9.80;;
1400;SDS011;46518;48.842;8.926;2023-06-22T02:01:20;12.23;;;11.10;;
1400;SDS011;46518;48.842;8.926;2023-06-22T02:03:55;14.70;;;12.70;;
1400;SDS011;46518;48.842;8.926;2023-06-22T02:06:30;15.73;;;11.73;;
1400;SDS011;46518;48.842;8.926;2023-06-22T02:09:06;11.60;;;10.47;;
1400;SDS011;46518;48.842;8.926;2023-06-22T02:11:37;12.90;;;10.90;;
1400;SDS011;46518;48.842;8.926;2023-06-22T02:14:10;13.50;;;10.90;;
1400;SDS011;46518;48.842;8.926;2023-06-22T02:16:40;11.67;;;10.40;;
1400;SDS011;46518;48.842;8.926;2023-06-22T02:19:09;13.07;;;11.77;;
1400;SDS011;46518;48.842;8.926;2023-06-22T02:21:37;13.43;;;11.57;;
1400;SDS011;46518;48.842;8.926;2023-06-22T02:24:06;12.50;;;11.20;;
1400;SDS011;46518;48.842;8.926;2023-06-22T02:26:34;10.97;;;9.87;;
1400;SDS011;46518;48.842;8.926;2023-06-22T02:29:03;11.40;;;10.20;;
1400;SDS011;46518;48.842;8.926;2023-06-22T02:31:32;12.57;;;11.27;;
1400;SDS011;46518;48.842;8.926;2023-06-22T02:34:00;11.90;;;10.70;;
1400;SDS011;46518;48.842;8.926;2023-06-22T02:36:28;13.37;;;11.97;;
1400;SDS011;46518;48.842;8.926;2023-06-22T02:38:59;12.00;;;10.73;;
1400;SDS011;46518;48.842;8.926;2023-06-22T02:41:30;12.67;;;11.37;;
1400;SDS011;46518;48.842;8.926;2023-06-22T02:43:58;16.10;;;11.63;;
1400;SDS011;46518;48.842;8.926;2023-06-22T02:46:26;13.60;;;12.30;;
1400;SDS011;46518;48.842;8.926;2023-06-22T02:48:56;13.90;;;12.00;;
1400;SDS011;46518;48.842;8.926;2023-06-22T02:51:24;14.97;;;11.70;;
1400;SDS011;46518;48.842;8.926;2023-06-22T02:53:52;13.77;;;11.30;;
1400;SDS011;46518;48.842;8.926;2023-06-22T02:56:26;13.50;;;11.43;;
1400;SDS011;46518;48.842;8.926;2023-06-22T02:58:59;14.33;;;10.60;;
1400;SDS011;46518;48.842;8.926;2023-06-22T03:01:33;15.52;;;12.00;;
1400;SDS011;46518;48.842;8.926;2023-06-22T03:04:22;12.05;;;10.85;;
1400;SDS011;46518;48.842;8.926;2023-06-22T03:06:50;14.83;;;11.57;;
1400;SDS011;46518;48.842;8.926;2023-06-22T03:09:19;16.27;;;11.60;;
1400;SDS011;46518;48.842;8.926;2023-06-22T03:11:48;13.90;;;11.93;;
1400;SDS011;46518;48.842;8.926;2023-06-22T03:14:17;13.03;;;11.33;;
1400;SDS011;46518;48.842;8.926;2023-06-22T03:16:45;13.63;;;10.73;;
1400;SDS011;46518;48.842;8.926;2023-06-22T03:19:13;12.87;;;10.60;;
1400;SDS011;46518;48.842;8.926;2023-06-22T03:21:43;15.00;;;11.53;;
1400;SDS011;46518;48.842;8.926;2023-06-22T03:24:11;13.33;;;11.93;;
1400;SDS011;46518;48.842;8.926;2023-06-22T03:26:39;13.10;;;11.80;;
1400;SDS011;46518;48.842;8.926;2023-06-22T03:29:07;12.93;;;11.60;;
1400;SDS011;46518;48.842;8.926;2023-06-22T03:31:35;11.90;;;10.03;;
1400;SDS011;46518;48.842;8.926;2023-06-22T03:34:05;13.10;;;11.20;;
1400;SDS011;46518;48.842;8.926;2023-06-22T03:36:33;11.27;;;10.07;;
1400;SDS011;46518;48.842;8.926;2023-06-22T03:39:02;12.95;;;11.20;;
1400;SDS011;46518;48.842;8.926;2023-06-22T03:41:31;12.13;;;10.60;;
1400;SDS011;46518;48.842;8.926;2023-06-22T03:43:59;12.60;;;11.30;;
1400;SDS011;46518;48.842;8.926;2023-06-22T03:46:27;11.60;;;10.03;;
1400;SDS011;46518;48.842;8.926;2023-06-22T03:48:55;13.03;;;10.20;;
1400;SDS011;46518;48.842;8.926;2023-06-22T03:51:23;13.68;;;10.65;;
1400;SDS011;46518;48.842;8.926;2023-06-22T03:53:51;12.20;;;10.82;;
1400;SDS011;46518;48.842;8.926;2023-06-22T03:56:21;11.40;;;10.17;;
1400;SDS011;46518;48.842;8.926;2023-06-22T03:58:49;11.15;;;10.00;;
1400;SDS011;46518;48.842;8.926;2023-06-22T04:01:17;10.77;;;9.68;;
1400;SDS011;46518;48.842;8.926;2023-06-22T04:03:46;11.50;;;8.98;;
1400;SDS011;46518;48.842;8.926;2023-06-22T04:06:16;13.77;;;10.83;;
1400;SDS011;46518;48.842;8.926;2023-06-22T04:08:46;11.90;;;9.50;;
1400;SDS011;46518;48.842;8.926;2023-06-22T04:11:18;12.85;;;9.55;;
1400;SDS011;46518;48.842;8.926;2023-06-22T04:13:47;15.15;;;9.98;;
1400;SDS011;46518;48.842;8.926;2023-06-22T04:16:18;11.43;;;10.23;;
1400;SDS011;46518;48.842;8.926;2023-06-22T04:18:46;9.33;;;8.37;;
1400;SDS011;46518;48.842;8.926;2023-06-22T04:21:14;15.23;;;12.02;;
1400;SDS011;46518;48.842;8.926;2023-06-22T04:23:42;10.40;;;9.40;;
1400;SDS011;46518;48.842;8.926;2023-06-22T04:26:12;11.10;;;9.43;;
1400;SDS011;46518;48.842;8.926;2023-06-22T04:28:41;12.68;;;11.30;;
1400;SDS011;46518;48.842;8.926;2023-06-22T04:31:11;10.70;;;9.65;;
1400;SDS011;46518;48.842;8.926;2023-06-22T04:33:39;10.80;;;9.70;;
1400;SDS011;46518;48.842;8.926;2023-06-22T04:36:07;11.93;;;10.50;;
1400;SDS011;46518;48.842;8.926;2023-06-22T04:38:35;11.35;;;10.00;;
1400;SDS011;46518;48.842;8.926;2023-06-22T04:41:03;12.93;;;11.55;;
1400;SDS011;46518;48.842;8.926;2023-06-22T04:43:33;12.33;;;10.87;;
1400;SDS011;46518;48.842;8.926;2023-06-22T04:46:01;13.43;;;11.32;;
1400;SDS011;46518;48.842;8.926;2023-06-22T04:48:32;15.27;;;11.90;;
1400;SDS011;46518;48.842;8.926;2023-06-22T04:51:00;14.70;;;11.83;;
1400;SDS011;46518;48.842;8.926;2023-06-22T04:53:31;11.23;;;10.27;;
1400;SDS011;46518;48.842;8.926;2023-06-22T04:55:59;11.97;;;10.60;;
1400;SDS011;46518;48.842;8.926;2023-06-22T04:58:27;11.40;;;10.23;;
1400;SDS011;46518;48.842;8.926;2023-06-22T05:00:59;11.47;;;10.17;;
1400;SDS011;46518;48.842;8.926;2023-06-22T05:03:27;14.13;;;10.57;;
1400;SDS011;46518;48.842;8.926;2023-06-22T05:05:57;12.63;;;10.53;;
1400;SDS011;46518;48.842;8.926;2023-06-22T05:08:25;12.03;;;10.43;;
1400;SDS011;46518;48.842;8.926;2023-06-22T05:10:55;16.53;;;10.30;;
1400;SDS011;46518;48.842;8.926;2023-06-22T05:13:31;11.37;;;10.20;;
1400;SDS011;46518;48.842;8.926;2023-06-22T05:15:59;14.33;;;11.77;;
1400;SDS011;46518;48.842;8.926;2023-06-22T05:18:30;12.63;;;11.37;;
1400;SDS011;46518;48.842;8.926;2023-06-22T05:21:00;12.60;;;11.30;;
1400;SDS011;46518;48.842;8.926;2023-06-22T05:23:29;11.03;;;9.73;;
1400;SDS011;46518;48.842;8.926;2023-06-22T05:25:57;12.80;;;10.37;;
1400;SDS011;46518;48.842;8.926;2023-06-22T05:28:26;13.20;;;11.40;;
1400;SDS011;46518;48.842;8.926;2023-06-22T05:30:54;11.80;;;10.60;;
1400;SDS011;46518;48.842;8.926;2023-06-22T05:33:22;12.10;;;10.77;;
1400;SDS011;46518;48.842;8.926;2023-06-22T05:35:50;11.43;;;10.13;;
1400;SDS011;46518;48.842;8.926;2023-06-22T05:38:20;12.03;;;10.83;;
1400;SDS011;46518;48.842;8.926;2023-06-22T05:40:48;11.20;;;10.03;;
1400;SDS011;46518;48.842;8.926;2023-06-22T05:43:16;11.60;;;10.43;;
1400;SDS011;46518;48.842;8.926;2023-06-22T05:45:44;15.73;;;10.50;;
1400;SDS011;46518;48.842;8.926;2023-06-22T05:48:13;14.70;;;10.97;;
1400;SDS011;46518;48.842;8.926;2023-06-22T05:50:41;11.63;;;10.43;;
1400;SDS011;46518;48.842;8.926;2023-06-22T05:53:10;11.70;;;9.43;;
1400;SDS011;46518;48.842;8.926;2023-06-22T05:55:39;12.33;;;11.07;;
1400;SDS011;46518;48.842;8.926;2023-06-22T05:58:09;12.97;;;10.30;;
1400;SDS011;46518;48.842;8.926;2023-06-22T06:00:37;15.60;;;11.53;;
1400;SDS011;46518;48.842;8.926;2023-06-22T06:03:06;11.20;;;10.03;;
1400;SDS011;46518;48.842;8.926;2023-06-22T06:05:35;12.93;;;10.90;;
1400;SDS011;46518;48.842;8.926;2023-06-22T06:08:05;12.40;;;10.83;;
1400;SDS011;46518;48.842;8.926;2023-06-22T06:10:33;14.53;;;10.30;;
1400;SDS011;46518;48.842;8.926;2023-06-22T06:13:04;12.23;;;10.93;;
1400;SDS011;46518;48.842;8.926;2023-06-22T06:15:32;12.50;;;11.20;;
1400;SDS011;46518;48.842;8.926;2023-06-22T06:18:02;11.87;;;10.27;;
1400;SDS011;46518;48.842;8.926;2023-06-22T06:20:32;10.90;;;9.80;;
1400;SDS011;46518;48.842;8.926;2023-06-22T06:23:01;11.07;;;9.47;;
1400;SDS011;46518;48.842;8.926;2023-06-22T06:25:29;13.93;;;10.90;;
1400;SDS011;46518;48.842;8.926;2023-06-22T06:27:57;11.90;;;10.07;;
1400;SDS011;46518;48.842;8.926;2023-06-22T06:30:27;13.63;;;11.40;;
1400;SDS011;46518;48.842;8.926;2023-06-22T06:35:35;17.33;;;10.13;;
1400;SDS011;46518;48.842;8.926;2023-06-22T06:38:04;12.70;;;9.20;;
1400;SDS011;46518;48.842;8.926;2023-06-22T06:40:32;11.33;;;9.47;;
1400;SDS011;46518;48.842;8.926;2023-06-22T06:43:01;11.60;;;9.80;;
1400;SDS011;46518;48.842;8.926;2023-06-22T06:45:30;14.10;;;9.10;;
1400;SDS011;46518;48.842;8.926;2023-06-22T06:48:01;10.90;;;9.20;;
1400;SDS011;46518;48.842;8.926;2023-06-22T06:50:29;9.23;;;8.33;;
1400;SDS011;46518;48.842;8.926;2023-06-22T06:52:58;11.03;;;9.50;;
1400;SDS011;46518;48.842;8.926;2023-06-22T06:55:28;10.23;;;8.17;;
1400;SDS011;46518;48.842;8.926;2023-06-22T06:57:59;9.10;;;8.20;;
1400;SDS011;46518;48.842;8.926;2023-06-22T07:00:27;9.10;;;7.43;;
1400;SDS011;46518;48.842;8.926;2023-06-22T07:02:57;8.10;;;7.30;;
1400;SDS011;46518;48.842;8.926;2023-06-22T07:05:25;10.13;;;7.50;;
1400;SDS011;46518;48.842;8.926;2023-06-22T07:07:54;8.53;;;7.63;;
1400;SDS011;46518;48.842;8.926;2023-06-22T07:10:22;11.77;;;8.27;;
1400;SDS011;46518;48.842;8.926;2023-06-22T07:12:50;8.40;;;7.60;;
1400;SDS011;46518;48.842;8.926;2023-06-22T07:15:18;9.13;;;8.00;;
1400;SDS011;46518;48.842;8.926;2023-06-22T07:17:46;8.80;;;7.90;;
1400;SDS011;46518;48.842;8.926;2023-06-22T07:20:16;10.30;;;9.07;;
1400;SDS011;46518;48.842;8.926;2023-06-22T07:22:46;8.37;;;7.27;;
1400;SDS011;46518;48.842;8.926;2023-06-22T07:25:14;12.30;;;7.97;;
1400;SDS011;46518;48.842;8.926;2023-06-22T07:27:44;9.37;;;8.37;;
1400;SDS011;46518;48.842;8.926;2023-06-22T07:30:13;9.13;;;7.70;;
1400;SDS011;46518;48.842;8.926;2023-06-22T07:32:43;10.90;;;7.57;;
1400;SDS011;46518;48.842;8.926;2023-06-22T07:35:11;7.77;;;7.03;;
1400;SDS011;46518;48.842;8.926;2023-06-22T07:37:41;8.00;;;7.30;;
1400;SDS011;46518;48.842;8.926;2023-06-22T07:40:09;9.00;;;8.10;;
1400;SDS011;46518;48.842;8.926;2023-06-22T07:42:38;11.67;;;8.40;;
1400;SDS011;46518;48.842;8.926;2023-06-22T07:45:06;8.40;;;7.60;;
1400;SDS011;46518;48.842;8.926;2023-06-22T07:47:35;9.63;;;7.43;;
1400;SDS011;46518;48.842;8.926;2023-06-22T07:50:04;8.17;;;7.37;;
1400;SDS011;46518;48.842;8.926;2023-06-22T07:52:33;8.43;;;7.53;;
1400;SDS011;46518;48.842;8.926;2023-06-22T07:55:02;13.93;;;7.50;;
1400;SDS011;46518;48.842;8.926;2023-06-22T07:57:31;9.30;;;7.47;;
1400;SDS011;46518;48.842;8.926;2023-06-22T08:00:04;7.63;;;6.93;;
1400;SDS011;46518;48.842;8.926;2023-06-22T08:02:39;8.67;;;7.07;;
1400;SDS011;46518;48.842;8.926;2023-06-22T08:05:08;9.80;;;6.37;;
1400;SDS011;46518;48.842;8.926;2023-06-22T08:07:48;8.60;;;6.73;;
1400;SDS011;46518;48.842;8.926;2023-06-22T08:10:18;8.60;;;7.60;;
1400;SDS011;46518;48.842;8.926;2023-06-22T08:12:47;7.67;;;6.87;;
1400;SDS011;46518;48.842;8.926;2023-06-22T08:15:15;9.50;;;7.27;;
1400;SDS011;46518;48.842;8.926;2023-06-22T08:17:43;11.03;;;7.73;;
1400;SDS011;46518;48.842;8.926;2023-06-22T08:20:12;7.50;;;6.43;;
1400;SDS011;46518;48.842;8.926;2023-06-22T08:22:41;10.30;;;7.40;;
1400;SDS011;46518;48.842;8.926;2023-06-22T08:25:12;6.93;;;6.30;;
1400;SDS011;46518;48.842;8.926;2023-06-22T08:27:45;8.87;;;7.30;;
1400;SDS011;46518;48.842;8.926;2023-06-22T08:30:15;9.20;;;7.43;;
1400;SDS011;46518;48.842;8.926;2023-06-22T08:32:45;8.60;;;7.17;;
1400;SDS011;46518;48.842;8.926;2023-06-22T08:35:13;7.40;;;6.13;;
1400;SDS011;46518;48.842;8.926;2023-06-22T08:37:41;9.90;;;7.13;;
1400;SDS011;46518;48.842;8.926;2023-06-22T08:40:09;10.53;;;7.33;;
1400;SDS011;46518;48.842;8.926;2023-06-22T08:42:40;9.30;;;7.30;;
1400;SDS011;46518;48.842;8.926;2023-06-22T08:45:10;7.40;;;6.10;;
1400;SDS011;46518;48.842;8.926;2023-06-22T08:47:38;6.00;;;5.40;;
1400;SDS011;46518;48.842;8.926;2023-06-22T08:50:08;7.70;;;6.90;;
1400;SDS011;46518;48.842;8.926;2023-06-22T08:52:37;8.70;;;6.50;;
1400;SDS011;46518;48.842;8.926;2023-06-22T08:55:08;7.80;;;7.00;;
1400;SDS011;46518;48.842;8.926;2023-06-22T08:57:37;8.33;;;7.20;;
1400;SDS011;46518;48.842;8.926;2023-06-22T09:00:06;9.07;;;7.70;;
1400;SDS011;46518;48.842;8.926;2023-06-22T09:02:43;7.93;;;6.80;;
1400;SDS011;46518;48.842;8.926;2023-06-22T09:05:11;12.33;;;7.07;;
1400;SDS011;46518;48.842;8.926;2023-06-22T09:07:40;8.13;;;6.90;;
1400;SDS011;46518;48.842;8.926;2023-06-22T09:10:08;6.73;;;6.03;;
1400;SDS011;46518;48.842;8.926;2023-06-22T09:12:37;8.13;;;7.30;;
1400;SDS011;46518;48.842;8.926;2023-06-22T09:15:05;10.20;;;7.13;;
1400;SDS011;46518;48.842;8.926;2023-06-22T09:17:40;11.93;;;7.53;;
1400;SDS011;46518;48.842;8.926;2023-06-22T09:20:09;7.97;;;7.17;;
1400;SDS011;46518;48.842;8.926;2023-06-22T09:22:38;9.60;;;6.27;;
1400;SDS011;46518;48.842;8.926;2023-06-22T09:25:07;9.30;;;6.90;;
1400;SDS011;46518;48.842;8.926;2023-06-22T09:27:37;8.07;;;7.00;;
1400;SDS011;46518;48.842;8.926;2023-06-22T09:30:05;6.73;;;6.03;;
1400;SDS011;46518;48.842;8.926;2023-06-22T09:32:34;8.80;;;6.20;;
1400;SDS011;46518;48.842;8.926;2023-06-22T09:35:04;8.27;;;7.20;;
1400;SDS011;46518;48.842;8.926;2023-06-22T09:37:35;9.63;;;7.37;;
1400;SDS011;46518;48.842;8.926;2023-06-22T09:40:04;6.87;;;6.10;;
1400;SDS011;46518;48.842;8.926;2023-06-22T09:42:36;9.93;;;6.33;;
1400;SDS011;46518;48.842;8.926;2023-06-22T09:45:05;9.00;;;7.60;;
1400;SDS011;46518;48.842;8.926;2023-06-22T09:47:33;9.67;;;7.40;;
1400;SDS011;46518;48.842;8.926;2023-06-22T09:50:02;10.90;;;7.33;;
1400;SDS011;46518;48.842;8.926;2023-06-22T09:52:32;10.63;;;7.37;;
1400;SDS011;46518;48.842;8.926;2023-06-22T09:55:14;12.23;;;7.50;;
1400;SDS011;46518;48.842;8.926;2023-06-22T09:57:43;8.23;;;7.43;;
1400;SDS011;46518;48.842;8.926;2023-06-22T10:00:11;7.80;;;6.97;;
1400;SDS011;46518;48.842;8.926;2023-06-22T10:02:41;14.83;;;8.33;;
1400;SDS011;46518;48.842;8.926;2023-06-22T10:05:11;8.17;;;7.37;;
1400;SDS011;46518;48.842;8.926;2023-06-22T10:07:40;9.17;;;7.50;;
1400;SDS011;46518;48.842;8.926;2023-06-22T10:10:11;7.70;;;6.63;;
1400;SDS011;46518;48.842;8.926;2023-06-22T10:12:45;9.63;;;7.63;;
1400;SDS011;46518;48.842;8.926;2023-06-22T10:15:14;7.23;;;6.53;;
1400;SDS011;46518;48.842;8.926;2023-06-22T10:17:43;10.70;;;6.70;;
1400;SDS011;46518;48.842;8.926;2023-06-22T10:20:13;9.50;;;7.03;;
1400;SDS011;46518;48.842;8.926;2023-06-22T10:22:42;9.20;;;7.57;;
1400;SDS011;46518;48.842;8.926;2023-06-22T10:25:12;10.30;;;7.53;;
1400;SDS011;46518;48.842;8.926;2023-06-22T10:27:40;9.63;;;7.50;;
1400;SDS011;46518;48.842;8.926;2023-06-22T10:30:09;10.07;;;7.33;;
1400;SDS011;46518;48.842;8.926;2023-06-22T10:32:40;10.23;;;7.37;;
1400;SDS011;46518;48.842;8.926;2023-06-22T10:35:09;7.93;;;7.23;;
1400;SDS011;46518;48.842;8.926;2023-06-22T10:37:41;7.73;;;7.13;;
1400;SDS011;46518;48.842;8.926;2023-06-22T10:40:11;8.00;;;7.20;;
1400;SDS011;46518;48.842;8.926;2023-06-22T10:42:40;12.00;;;7.77;;
1400;SDS011;46518;48.842;8.926;2023-06-22T10:45:08;10.30;;;6.70;;
1400;SDS011;46518;48.842;8.926;2023-06-22T10:47:37;9.10;;;7.20;;
1400;SDS011;46518;48.842;8.926;2023-06-22T10:50:05;12.80;;;7.77;;
1400;SDS011;46518;48.842;8.926;2023-06-22T10:52:34;7.80;;;6.30;;
1400;SDS011;46518;48.842;8.926;2023-06-22T10:55:04;7.73;;;6.90;;
1400;SDS011;46518;48.842;8.926;2023-06-22T10:57:33;7.87;;;7.07;;
1400;SDS011;46518;48.842;8.926;2023-06-22T11:00:01;7.80;;;6.80;;
1400;SDS011;46518;48.842;8.926;2023-06-22T11:02:32;11.13;;;8.07;;
1400;SDS011;46518;48.842;8.926;2023-06-22T11:05:00;10.13;;;7.10;;
1400;SDS011;46518;48.842;8.926;2023-06-22T11:07:28;8.10;;;7.30;;
1400;SDS011;46518;48.842;8.926;2023-06-22T11:09:57;7.53;;;6.80;;
1400;SDS011;46518;48.842;8.926;2023-06-22T11:12:26;8.83;;;6.73;;
1400;SDS011;46518;48.842;8.926;2023-06-22T11:14:54;9.13;;;7.40;;
1400;SDS011;46518;48.842;8.926;2023-06-22T11:17:25;10.63;;;7.03;;
1400;SDS011;46518;48.842;8.926;2023-06-22T11:19:53;8.90;;;7.97;;
1400;SDS011;46518;48.842;8.926;2023-06-22T11:22:21;8.80;;;7.40;;
1400;SDS011;46518;48.842;8.926;2023-06-22T11:24:49;11.37;;;9.93;;
1400;SDS011;46518;48.842;8.926;2023-06-22T11:27:18;12.17;;;7.17;;
1400;SDS011;46518;48.842;8.926;2023-06-22T11:29:47;7.83;;;7.13;;
1400;SDS011;46518;48.842;8.926;2023-06-22T11:32:16;9.33;;;7.20;;
1400;SDS011;46518;48.842;8.926;2023-06-22T11:34:44;8.30;;;7.20;;
1400;SDS011;46518;48.842;8.926;2023-06-22T11:37:12;8.00;;;7.23;;
1400;SDS011;46518;48.842;8.926;2023-06-22T11:39:41;12.57;;;7.80;;
1400;SDS011;46518;48.842;8.926;2023-06-22T11:42:19;9.07;;;7.40;;
1400;SDS011;46518;48.842;8.926;2023-06-22T11:44:48;11.57;;;8.47;;
1400;SDS011;46518;48.842;8.926;2023-06-22T11:47:16;10.60;;;7.97;;
1400;SDS011;46518;48.842;8.926;2023-06-22T11:49:44;10.13;;;7.50;;
1400;SDS011;46518;48.842;8.926;2023-06-22T11:52:13;11.53;;;7.93;;
1400;SDS011;46518;48.842;8.926;2023-06-22T11:54:41;8.30;;;7.50;;
1400;SDS011;46518;48.842;8.926;2023-06-22T11:57:09;9.40;;;7.80;;
1400;SDS011;46518;48.842;8.926;2023-06-22T11:59:37;10.07;;;6.97;;
1400;SDS011;46518;48.842;8.926;2023-06-22T12:02:07;8.70;;;7.87;;
1400;SDS011;46518;48.842;8.926;2023-06-22T12:04:36;9.10;;;7.40;;
1400;SDS011;46518;48.842;8.926;2023-06-22T12:07:04;9.30;;;7.27;;
1400;SDS011;46518;48.842;8.926;2023-06-22T12:09:32;9.03;;;8.20;;
1400;SDS011;46518;48.842;8.926;2023-06-22T12:12:00;9.67;;;7.53;;
1400;SDS011;46518;48.842;8.926;2023-06-22T12:14:29;9.43;;;7.33;;
1400;SDS011;46518;48.842;8.926;2023-06-22T12:16:58;14.30;;;8.73;;
1400;SDS011;46518;48.842;8.926;2023-06-22T12:19:27;10.63;;;6.83;;
1400;SDS011;46518;48.842;8.926;2023-06-22T12:21:55;11.57;;;7.87;;
1400;SDS011;46518;48.842;8.926;2023-06-22T12:24:23;9.67;;;8.20;;
1400;SDS011;46518;48.842;8.926;2023-06-22T12:26:52;10.90;;;8.10;;
1400;SDS011;46518;48.842;8.926;2023-06-22T12:29:22;8.60;;;7.67;;
1400;SDS011;46518;48.842;8.926;2023-06-22T12:31:50;9.20;;;7.20;;
1400;SDS011;46518;48.842;8.926;2023-06-22T12:34:18;10.00;;;7.53;;
1400;SDS011;46518;48.842;8.926;2023-06-22T12:36:48;9.00;;;7.17;;
1400;SDS011;46518;48.842;8.926;2023-06-22T12:39:16;9.50;;;7.77;;
1400;SDS011;46518;48.842;8.926;2023-06-22T12:41:44;9.03;;;7.73;;
1400;SDS011;46518;48.842;8.926;2023-06-22T12:44:13;11.23;;;8.53;;
1400;SDS011;46518;48.842;8.926;2023-06-22T12:46:41;10.23;;;8.10;;
1400;SDS011;46518;48.842;8.926;2023-06-22T12:49:09;7.57;;;6.73;;
1400;SDS011;46518;48.842;8.926;2023-06-22T12:51:39;9.20;;;7.93;;
1400;SDS011;46518;48.842;8.926;2023-06-22T12:54:09;9.17;;;7.40;;
1400;SDS011;46518;48.842;8.926;2023-06-22T12:56:37;13.97;;;8.40;;
1400;SDS011;46518;48.842;8.926;2023-06-22T12:59:09;10.60;;;8.17;;
1400;SDS011;46518;48.842;8.926;2023-06-22T13:02:01;9.43;;;8.43;;
1400;SDS011;46518;48.842;8.926;2023-06-22T13:04:34;8.83;;;8.07;;
1400;SDS011;46518;48.842;8.926;2023-06-22T13:07:05;9.57;;;8.57;;
1400;SDS011;46518;48.842;8.926;2023-06-22T13:09:49;17.03;;;9.20;;
1400;SDS011;46518;48.842;8.926;2023-06-22T13:12:20;9.37;;;8.47;;
1400;SDS011;46518;48.842;8.926;2023-06-22T13:14:51;9.30;;;8.07;;
1400;SDS011;46518;48.842;8.926;2023-06-22T13:17:20;10.60;;;8.60;;
1400;SDS011;46518;48.842;8.926;2023-06-22T13:19:51;9.93;;;8.10;;
1400;SDS011;46518;48.842;8.926;2023-06-22T13:22:29;9.77;;;8.87;;
1400;SDS011;46518;48.842;8.926;2023-06-22T13:25:00;9.60;;;8.20;;
1400;SDS011;46518;48.842;8.926;2023-06-22T13:27:29;13.47;;;9.20;;
1400;SDS011;46518;48.842;8.926;2023-06-22T13:29:59;13.50;;;7.47;;
1400;SDS011;46518;48.842;8.926;2023-06-22T13:32:32;14.60;;;8.70;;
1400;SDS011;46518;48.842;8.926;2023-06-22T13:35:10;9.57;;;7.50;;
1400;SDS011;46518;48.842;8.926;2023-06-22T13:37:39;10.60;;;8.43;;
1400;SDS011;46518;48.842;8.926;2023-06-22T13:40:12;9.50;;;8.03;;
1400;SDS011;46518;48.842;8.926;2023-06-22T13:42:42;10.00;;;8.20;;
1400;SDS011;46518;48.842;8.926;2023-06-22T13:45:14;11.73;;;8.13;;
1400;SDS011;46518;48.842;8.926;2023-06-22T13:47:43;10.77;;;8.40;;
1400;SDS011;46518;48.842;8.926;2023-06-22T13:50:18;9.50;;;8.23;;
1400;SDS011;46518;48.842;8.926;2023-06-22T13:52:51;8.93;;;7.30;;
1400;SDS011;46518;48.842;8.926;2023-06-22T13:55:21;11.40;;;8.43;;
1400;SDS011;46518;48.842;8.926;2023-06-22T13:57:54;9.10;;;8.10;;
1400;SDS011;46518;48.842;8.926;2023-06-22T14:00:29;9.63;;;7.80;;
1400;SDS011;46518;48.842;8.926;2023-06-22T14:03:06;8.90;;;8.00;;
1400;SDS011;46518;48.842;8.926;2023-06-22T14:05:35;11.40;;;7.83;;
1400;SDS011;46518;48.842;8.926;2023-06-22T14:08:11;7.73;;;6.93;;
1400;SDS011;46518;48.842;8.926;2023-06-22T14:11:15;9.20;;;7.90;;
1400;SDS011;46518;48.842;8.926;2023-06-22T14:13:49;10.10;;;7.33;;
1400;SDS011;46518;48.842;8.926;2023-06-22T14:16:20;13.27;;;7.33;;
1400;SDS011;46518;48.842;8.926;2023-06-22T14:18:56;10.67;;;7.20;;
1400;SDS011;46518;48.842;8.926;2023-06-22T14:21:35;9.20;;;6.50;;
1400;SDS011;46518;48.842;8.926;2023-06-22T14:24:04;10.20;;;4.73;;
1400;SDS011;46518;48.842;8.926;2023-06-22T14:26:41;13.73;;;4.90;;
1400;SDS011;46518;48.842;8.926;2023-06-22T14:29:15;11.43;;;4.77;;
1400;SDS011;46518;48.842;8.926;2023-06-22T14:31:49;9.30;;;4.67;;
1400;SDS011;46518;48.842;8.926;2023-06-22T14:34:23;10.03;;;4.90;;
1400;SDS011;46518;48.842;8.926;2023-06-22T14:37:07;8.30;;;4.83;;
1400;SDS011;46518;48.842;8.926;2023-06-22T14:39:51;8.63;;;4.50;;
1400;SDS011;46518;48.842;8.926;2023-06-22T14:42:21;8.00;;;4.47;;
1400;SDS011;46518;48.842;8.926;2023-06-22T14:44:52;13.33;;;5.00;;
1400;SDS011;46518;48.842;8.926;2023-06-22T14:47:23;9.90;;;4.77;;
1400;SDS011;46518;48.842;8.926;2023-06-22T14:49:56;7.70;;;4.63;;
1400;SDS011;46518;48.842;8.926;2023-06-22T14:52:29;7.30;;;4.60;;
1400;SDS011;46518;48.842;8.926;2023-06-22T14:54:58;6.60;;;3.93;;
1400;SDS011;46518;48.842;8.926;2023-06-22T14:57:32;7.20;;;4.83;;
1400;SDS011;46518;48.842;8.926;2023-06-22T15:00:10;9.17;;;4.10;;
1400;SDS011;46518;48.842;8.926;2023-06-22T15:02:45;4.97;;;4.00;;
1400;SDS011;46518;48.842;8.926;2023-06-22T15:05:20;7.13;;;4.80;;
1400;SDS011;46518;48.842;8.926;2023-06-22T15:07:51;11.80;;;4.87;;